Time;durP1;ratioP1;P1;durP2;ratioP2;P2;SDS_P1;SDS_P2;PMS_P1;PMS_P2;Temp;Humidity;BMP_temperature;BMP_pressure;BME280_temperature;BME280_humidity;BME280_pressure;Samples;Min_cycle;Max_cycle;Signal;HPM_P1;HPM_P2
2021/04/01 00:00:37;;;;;;;45.20;19.17;;;;;;;13.44;71.94;101416.06;4987720;28;20128;-72
2021/04/01 00:03:04;;;;;;;38.57;17.30;;;;;;;13.39;72.31;101417.34;4985659;28;20458;-72
2021/04/01 00:05:29;;;;;;;42.78;17.30;;;;;;;13.33;72.40;101413.22;4988084;28;20347;-72
2021/04/01 00:07:55;;;;;;;50.20;19.02;;;;;;;13.30;72.29;101410.69;4988485;28;20507;-72
2021/04/01 00:10:25;;;;;;;44.35;20.00;;;;;;;13.28;72.58;101412.63;4986281;28;20569;-72
2021/04/01 00:12:50;;;;;;;44.03;19.50;;;;;;;13.26;72.41;101406.47;4999540;23;20046;-77
2021/04/01 00:15:17;;;;;;;37.65;17.10;;;;;;;13.22;72.67;101415.72;4998620;28;20108;-78
2021/04/01 00:17:43;;;;;;;39.40;18.13;;;;;;;13.18;72.67;101406.97;4992939;28;20061;-77
2021/04/01 00:20:12;;;;;;;43.17;18.05;;;;;;;13.15;72.69;101408.97;4980686;28;20039;-77
2021/04/01 00:22:38;;;;;;;43.53;19.13;;;;;;;13.16;72.78;101410.72;4977405;28;20112;-77
2021/04/01 00:25:05;;;;;;;42.38;19.73;;;;;;;13.18;73.12;101409.66;4988206;28;20038;-78
2021/04/01 00:27:30;;;;;;;42.80;20.05;;;;;;;13.18;73.21;101408.78;5020033;23;20140;-76
2021/04/01 00:29:56;;;;;;;50.20;19.80;;;;;;;13.17;73.18;101404.38;5000736;28;20360;-76
2021/04/01 00:32:21;;;;;;;49.70;19.88;;;;;;;13.19;73.02;101405.16;4998516;28;20049;-76
2021/04/01 00:34:46;;;;;;;46.05;21.20;;;;;;;13.17;73.02;101401.66;5006119;28;20030;-76
2021/04/01 00:37:12;;;;;;;47.60;20.15;;;;;;;13.15;72.91;101401.75;5005297;28;20457;-76
2021/04/01 00:39:37;;;;;;;46.30;21.38;;;;;;;13.13;73.14;101400.16;5005724;28;20030;-76
2021/04/01 00:42:04;;;;;;;53.53;22.73;;;;;;;13.09;73.38;101398.56;4997574;23;20049;-82
2021/04/01 00:44:29;;;;;;;48.45;19.25;;;;;;;13.08;73.38;101396.84;5007665;28;20188;-82
2021/04/01 00:46:55;;;;;;;44.83;20.38;;;;;;;13.02;73.44;101391.84;5010440;28;20038;-83
2021/04/01 00:49:20;;;;;;;43.58;19.90;;;;;;;12.94;73.56;101401.28;4991327;28;20497;-82
2021/04/01 00:51:46;;;;;;;57.55;21.30;;;;;;;12.89;73.82;101398.03;5010709;28;20048;-82
2021/04/01 00:54:12;;;;;;;54.55;20.13;;;;;;;12.85;73.98;101399.16;5007128;28;20391;-82
2021/04/01 00:56:38;;;;;;;53.33;21.30;;;;;;;12.83;73.99;101397.53;5007108;28;20107;-83
2021/04/01 00:59:05;;;;;;;53.17;22.90;;;;;;;12.80;74.17;101400.41;5002031;28;20057;-83
2021/04/01 01:01:41;;;;;;;54.58;22.02;;;;;;;12.77;74.40;101392.53;5021386;28;20033;-82
2021/04/01 01:04:09;;;;;;;48.00;20.88;;;;;;;12.75;74.47;101399.84;5020548;28;20124;-82
2021/04/01 01:06:34;;;;;;;50.78;22.50;;;;;;;12.76;74.48;101391.66;5008251;28;20058;-82
2021/04/01 01:09:00;;;;;;;48.65;20.98;;;;;;;12.76;74.71;101390.81;4992946;28;20047;-82
2021/04/01 01:11:29;;;;;;;49.95;20.60;;;;;;;12.75;74.90;101389.06;5006821;28;20406;-82
2021/04/01 01:13:54;;;;;;;47.53;20.42;;;;;;;12.76;74.95;101388.97;5007740;28;20076;-82
2021/04/01 01:16:20;;;;;;;66.82;21.85;;;;;;;12.76;74.94;101391.66;4990500;28;20085;-82
2021/04/01 01:18:45;;;;;;;49.58;20.67;;;;;;;12.73;75.11;101391.84;4987981;28;20053;-82
2021/04/01 01:21:10;;;;;;;48.70;20.88;;;;;;;12.73;75.12;101391.84;4991295;28;20463;-82
2021/04/01 01:23:36;;;;;;;51.95;20.27;;;;;;;12.72;75.32;101389.25;4989036;28;20030;-82
2021/04/01 01:26:02;;;;;;;46.65;21.10;;;;;;;12.67;75.51;101386.84;4988105;28;20030;-82
2021/04/01 01:28:28;;;;;;;46.25;20.25;;;;;;;12.64;75.61;101391.56;5009094;28;20507;-82
2021/04/01 01:30:54;;;;;;;55.90;21.75;;;;;;;12.59;75.74;101383.75;5006862;28;20157;-82
2021/04/01 01:33:22;;;;;;;46.00;20.38;;;;;;;12.59;75.68;101378.38;4991582;28;20065;-81
2021/04/01 01:35:49;;;;;;;49.38;21.88;;;;;;;12.59;75.75;101378.38;5007579;28;20049;-82
2021/04/01 01:38:16;;;;;;;48.20;21.35;;;;;;;12.59;75.87;101380.22;5007365;28;20793;-82
2021/04/01 01:40:42;;;;;;;47.78;20.88;;;;;;;12.57;75.97;101372.22;4991311;28;20041;-83
2021/04/01 01:43:10;;;;;;;48.00;19.75;;;;;;;12.55;76.21;101379.53;4992800;28;20383;-82
2021/04/01 01:45:36;;;;;;;46.33;18.80;;;;;;;12.54;76.33;101375.09;4987862;28;20499;-82
2021/04/01 01:48:03;;;;;;;48.97;19.75;;;;;;;12.53;76.44;101378.75;5009271;28;20033;-81
2021/04/01 01:50:31;;;;;;;50.20;21.90;;;;;;;12.52;76.69;101374.34;5004734;28;20069;-82
2021/04/01 01:52:57;;;;;;;44.28;20.77;;;;;;;12.50;76.88;101373.56;4994551;28;20091;-82
2021/04/01 01:55:24;;;;;;;49.65;21.35;;;;;;;12.47;76.99;101357.59;4991160;28;20026;-82
2021/04/01 01:57:50;;;;;;;52.55;21.73;;;;;;;12.44;77.14;101360.47;4994678;28;20069;-82
2021/04/01 02:00:25;;;;;;;54.03;21.63;;;;;;;12.43;77.15;101366.81;5007237;28;20068;-82
2021/04/01 02:02:55;;;;;;;66.28;21.27;;;;;;;12.38;77.33;101367.09;4987990;28;21840;-82
2021/04/01 02:05:22;;;;;;;47.60;21.02;;;;;;;12.36;77.57;101366.31;5006275;28;20080;-82
2021/04/01 02:07:48;;;;;;;44.70;19.08;;;;;;;12.36;77.73;101370.84;5012023;28;20105;-82
2021/04/01 02:10:15;;;;;;;48.38;20.85;;;;;;;12.33;77.94;101369.22;4992670;28;20589;-83
2021/04/01 02:12:41;;;;;;;46.97;20.75;;;;;;;12.32;78.09;101372.00;5007197;28;20072;-81
2021/04/01 02:15:16;;;;;;;46.92;20.17;;;;;;;12.30;78.10;101371.22;4989817;28;20073;-81
2021/04/01 02:17:42;;;;;;;45.35;21.25;;;;;;;12.27;78.06;101371.44;4996080;28;20057;-82
2021/04/01 02:20:09;;;;;;;52.35;20.77;;;;;;;12.25;77.91;101370.63;4989322;28;20069;-82
2021/04/01 02:22:35;;;;;;;55.35;23.25;;;;;;;12.22;77.74;101362.78;5007313;28;20037;-82
2021/04/01 02:25:01;;;;;;;60.63;22.98;;;;;;;12.19;77.63;101362.94;4989879;28;20022;-81
2021/04/01 02:27:26;;;;;;;51.17;22.02;;;;;;;12.18;77.71;101366.59;5004785;28;20164;-82
2021/04/01 02:29:53;;;;;;;58.15;22.60;;;;;;;12.18;77.94;101361.19;5006802;28;20044;-82
2021/04/01 02:32:18;;;;;;;60.47;23.80;;;;;;;12.19;78.23;101357.56;4989722;28;20452;-82
2021/04/01 02:34:44;;;;;;;56.00;23.33;;;;;;;12.16;78.37;101367.53;5010708;28;20030;-82
2021/04/01 02:37:10;;;;;;;55.92;23.67;;;;;;;12.14;78.72;101361.41;4996418;28;20525;-82
2021/04/01 02:39:35;;;;;;;55.80;22.38;;;;;;;12.15;78.77;101365.84;4989271;28;20034;-82
2021/04/01 02:42:01;;;;;;;53.63;24.27;;;;;;;12.16;78.83;101366.66;4992333;28;20080;-82
2021/04/01 02:44:26;;;;;;;61.28;23.10;;;;;;;12.15;78.80;101359.59;5009778;28;20033;-82
2021/04/01 02:46:52;;;;;;;55.00;21.98;;;;;;;12.12;79.19;101347.16;5015996;28;20083;-81
2021/04/01 02:49:17;;;;;;;55.58;23.75;;;;;;;12.12;79.21;101354.38;5010303;28;20384;-82
2021/04/01 02:51:43;;;;;;;56.47;24.30;;;;;;;12.09;78.85;101352.75;5016650;28;20064;-82
2021/04/01 02:54:08;;;;;;;61.10;24.33;;;;;;;12.07;78.84;101351.97;4991613;28;20579;-81
2021/04/01 02:56:34;;;;;;;53.45;23.33;;;;;;;12.06;79.08;101358.31;4997262;28;20484;-82
2021/04/01 02:58:59;;;;;;;57.75;23.50;;;;;;;12.05;79.38;101356.56;4993110;28;20478;-82
2021/04/01 03:01:25;;;;;;;52.17;22.17;;;;;;;12.04;79.41;101360.22;4995995;28;20426;-82
2021/04/01 03:03:53;;;;;;;56.35;23.70;;;;;;;12.02;79.92;101372.03;4992991;28;20033;-82
2021/04/01 03:06:19;;;;;;;59.72;23.70;;;;;;;11.96;80.34;101369.72;5016897;28;20530;-82
2021/04/01 03:08:44;;;;;;;57.90;22.45;;;;;;;11.95;80.63;101370.66;4999134;28;20121;-82
2021/04/01 03:11:10;;;;;;;57.33;23.60;;;;;;;11.94;80.70;101369.81;4994593;28;20061;-81
2021/04/01 03:13:35;;;;;;;61.22;24.50;;;;;;;11.93;80.72;101365.38;5010604;28;20029;-82
2021/04/01 03:16:01;;;;;;;59.92;25.05;;;;;;;11.94;80.40;101366.25;4993583;28;20037;-82
2021/04/01 03:18:27;;;;;;;63.95;23.17;;;;;;;11.92;80.76;101360.94;5008254;28;20065;-82
2021/04/01 03:20:53;;;;;;;55.17;23.70;;;;;;;11.93;80.76;101362.69;4993058;28;20057;-82
2021/04/01 03:23:18;;;;;;;52.58;23.58;;;;;;;11.93;80.44;101362.69;4998930;28;20037;-82
2021/04/01 03:25:44;;;;;;;70.03;26.73;;;;;;;11.95;80.55;101370.66;4992233;28;20083;-82
2021/04/01 03:28:11;;;;;;;58.53;25.42;;;;;;;11.93;80.81;101368.06;5008779;28;20030;-82
2021/04/01 03:30:40;;;;;;;60.65;24.52;;;;;;;11.90;81.17;101362.88;4993382;28;20482;-82
2021/04/01 03:33:06;;;;;;;60.83;24.92;;;;;;;11.88;81.09;101362.09;5008903;28;20044;-82
2021/04/01 03:35:31;;;;;;;54.72;23.23;;;;;;;11.88;81.10;101367.47;5009678;28;20033;-82
2021/04/01 03:38:01;;;;;;;64.60;24.35;;;;;;;11.88;81.05;101370.16;5010265;28;20652;-81
2021/04/01 03:40:27;;;;;;;63.17;24.02;;;;;;;11.86;81.26;101366.69;5005659;28;20466;-82
2021/04/01 03:42:53;;;;;;;56.72;25.95;;;;;;;11.84;81.38;101363.25;5010042;28;20068;-82
2021/04/01 03:45:19;;;;;;;64.65;25.20;;;;;;;11.84;81.25;101374.00;5008353;28;20038;-82
2021/04/01 03:47:45;;;;;;;60.75;24.63;;;;;;;11.82;81.02;101370.53;4994562;28;20102;-82
2021/04/01 03:50:13;;;;;;;69.95;24.60;;;;;;;11.78;81.55;101374.38;4996928;28;20522;-81
2021/04/01 03:52:40;;;;;;;61.92;25.65;;;;;;;11.75;81.51;101370.03;5024391;28;20068;-82
2021/04/01 03:55:52;;;;;;;64.10;26.50;;;;;;;11.74;81.72;101362.03;5012172;28;20030;-81
2021/04/01 03:58:04;;;;;;;61.92;23.77;;;;;;;11.72;81.79;101372.00;5008468;28;20049;-82
2021/04/01 04:00:33;;;;;;;59.70;24.25;;;;;;;11.73;81.77;101371.03;4992348;28;20054;-82
2021/04/01 04:13:33;;;;;;;71.90;27.63;;;;;;;11.61;82.58;101379.81;5010684;28;20057;-82
2021/04/01 04:15:59;;;;;;;62.28;26.48;;;;;;;11.60;82.47;101375.41;5009258;28;20049;-81
2021/04/01 04:18:25;;;;;;;63.28;26.15;;;;;;;11.55;82.86;101377.47;4992598;28;20060;-82
2021/04/01 04:20:50;;;;;;;62.85;24.27;;;;;;;11.53;83.33;101379.41;4993440;28;20037;-82
2021/04/01 04:23:18;;;;;;;59.40;24.63;;;;;;;11.53;83.42;101380.28;4993370;28;20041;-82
2021/04/01 04:25:43;;;;;;;61.03;24.35;;;;;;;11.51;83.70;101381.31;5004133;28;20058;-82
2021/04/01 04:28:24;;;;;;;59.45;24.02;;;;;;;11.50;83.94;101384.94;5005690;28;20061;-82
2021/04/01 04:30:50;;;;;;;66.40;26.25;;;;;;;11.51;84.05;101392.06;4988416;28;20034;-82
2021/04/01 04:33:15;;;;;;;63.08;25.35;;;;;;;11.48;84.31;101382.34;4995248;28;20030;-82
2021/04/01 04:35:41;;;;;;;67.18;28.08;;;;;;;11.47;84.09;101380.63;4997775;28;20038;-82
2021/04/01 04:38:06;;;;;;;74.68;27.75;;;;;;;11.46;84.09;101383.41;4991996;28;20026;-82
2021/04/01 04:40:32;;;;;;;62.13;25.20;;;;;;;11.45;84.09;101382.53;4991649;28;20053;-82
2021/04/01 04:42:58;;;;;;;66.75;26.95;;;;;;;11.45;84.20;101382.53;4989868;28;20028;-82
2021/04/01 04:45:23;;;;;;;71.40;27.63;;;;;;;11.44;84.23;101385.28;5013246;28;20090;-82
2021/04/01 04:47:49;;;;;;;73.25;26.98;;;;;;;11.43;84.09;101391.63;4999637;28;20041;-82
2021/04/01 04:50:14;;;;;;;70.90;26.80;;;;;;;11.41;84.24;101386.34;5017596;28;20102;-82
2021/04/01 04:52:41;;;;;;;67.45;27.23;;;;;;;11.38;84.34;101393.72;5017833;28;20073;-82
2021/04/01 04:55:09;;;;;;;60.15;23.90;;;;;;;11.36;84.67;101397.34;5014903;28;20034;-83
2021/04/01 05:05:39;;;;;;;62.17;24.77;;;;;;;11.31;84.29;101394.06;5012699;28;20034;-82
2021/04/01 05:08:05;;;;;;;63.35;24.92;;;;;;;11.30;84.49;101407.56;5018065;28;20053;-82
2021/04/01 05:10:30;;;;;;;60.28;25.88;;;;;;;11.26;84.59;101403.34;4991007;28;20041;-83
2021/04/01 05:15:30;;;;;;;67.05;26.35;;;;;;;11.20;84.67;101407.25;5022806;28;20037;-83
2021/04/01 05:18:01;;;;;;;63.90;25.50;;;;;;;11.18;84.79;101411.81;5010652;28;20568;-82
2021/04/01 05:20:29;;;;;;;68.15;26.45;;;;;;;11.18;84.79;101416.31;4994455;28;20041;-82
2021/04/01 05:23:01;;;;;;;68.82;26.02;;;;;;;11.15;84.75;101422.75;5008658;28;20042;-82
2021/04/01 05:25:29;;;;;;;62.78;25.58;;;;;;;11.13;84.80;101424.66;5003721;28;20026;-82
2021/04/01 05:28:18;;;;;;;66.20;27.10;;;;;;;11.12;84.97;101417.53;5011902;28;20092;-82
2021/04/01 05:30:40;;;;;;;77.38;28.25;;;;;;;11.10;85.14;101422.16;5006927;28;20091;-82
2021/04/01 05:33:05;;;;;;;62.33;25.00;;;;;;;11.08;85.25;101425.84;5007577;28;20042;-82
2021/04/01 05:35:31;;;;;;;66.10;26.92;;;;;;;11.06;85.32;101417.88;5010414;28;20036;-82
2021/04/01 05:37:56;;;;;;;75.53;28.90;;;;;;;11.05;85.33;101424.19;5009952;28;20037;-82
2021/04/01 05:40:22;;;;;;;73.00;27.00;;;;;;;11.03;85.48;101434.19;5009004;28;20052;-82
2021/04/01 05:42:49;;;;;;;75.68;28.02;;;;;;;11.03;85.50;101434.19;4994166;28;20038;-82
2021/04/01 05:46:04;;;;;;;66.65;26.42;;;;;;;11.03;85.60;101444.94;5015566;28;20521;-83
2021/04/01 05:48:02;;;;;;;67.78;27.77;;;;;;;11.02;85.60;101442.31;5009060;28;20056;-82
2021/04/01 06:04:12;;;;;;;73.20;27.25;;;;;;;11.20;84.09;101469.03;5010791;28;20096;-82
2021/04/01 06:06:48;;;;;;;63.60;25.02;;;;;;;11.23;84.09;101462.66;4998168;28;20032;-82
2021/04/01 06:09:24;;;;;;;63.75;26.77;;;;;;;11.27;83.85;101465.06;5012248;28;20053;-82
2021/04/01 06:11:52;;;;;;;62.45;27.15;;;;;;;11.32;83.84;101467.50;5027872;28;20327;-82
2021/04/01 06:14:45;;;;;;;64.78;27.35;;;;;;;11.36;83.93;101459.16;5016998;28;20030;-82
2021/04/01 06:17:17;;;;;;;69.72;27.48;;;;;;;11.42;83.67;101459.81;4997317;28;20038;-82
2021/04/01 06:19:47;;;;;;;77.30;27.42;;;;;;;11.47;83.74;101471.16;4988424;28;20502;-82
2021/04/01 06:22:13;;;;;;;78.43;28.35;;;;;;;11.51;83.91;101472.72;5012901;28;20041;-81
2021/04/01 06:24:43;;;;;;;79.85;29.20;;;;;;;11.54;84.14;101465.34;4997483;28;20038;-82
2021/04/01 06:27:19;;;;;;;77.07;28.88;;;;;;;11.58;84.25;101466.91;4998443;28;20044;-82
2021/04/01 06:32:38;;;;;;;69.13;27.77;;;;;;;11.74;83.51;101469.63;5014296;28;20038;-81
2021/04/01 06:35:14;;;;;;;86.10;28.42;;;;;;;11.83;83.28;101471.78;4996702;28;20061;-82
2021/04/01 06:38:11;;;;;;;74.95;29.95;;;;;;;11.95;83.20;101463.00;4992697;28;20037;-81
2021/04/01 06:40:40;;;;;;;95.43;31.95;;;;;;;12.10;82.79;101459.41;5003991;28;20426;-82
2021/04/01 06:43:17;;;;;;;80.50;29.65;;;;;;;12.25;82.49;101459.47;4997574;28;20045;-82
2021/04/01 06:46:00;;;;;;;73.63;29.02;;;;;;;12.44;82.47;101455.59;5010669;28;20804;-82
2021/04/01 06:51:12;;;;;;;;;;;;;;;12.92;80.46;101456.22;5014394;28;20029;-82
2021/04/01 06:56:33;;;;;;;;;;;;;;;13.72;78.41;101464.53;5016344;28;20041;-82
2021/04/01 07:01:39;;;;;;;75.28;30.58;;;;;;;14.91;73.65;101461.84;5011119;28;20034;-83
2021/04/01 07:04:07;;;;;;;80.00;31.93;;;;;;;15.43;72.00;101469.78;5013367;28;20030;-82
2021/04/01 07:06:36;;;;;;;169.98;72.85;;;;;;;15.88;67.15;101470.97;5006755;28;20030;-83
2021/04/01 07:09:32;;;;;;;99.35;43.53;;;;;;;16.39;64.13;101481.56;4996944;28;20080;-83
2021/04/01 07:12:13;;;;;;;96.50;41.78;;;;;;;16.85;60.49;101485.19;5011140;28;20111;-82
2021/04/01 07:14:42;;;;;;;86.55;40.15;;;;;;;17.20;58.86;101485.13;4993953;28;20529;-83
2021/04/01 07:47:30;;;;;;;88.85;37.92;;;;;;;20.46;44.91;101509.38;5014942;28;20037;-83
2021/04/01 07:49:59;;;;;;;95.78;40.03;;;;;;;20.34;44.20;101518.69;5011922;28;20577;-84
2021/04/01 07:52:27;;;;;;;89.60;36.80;;;;;;;20.37;44.23;101526.56;5013803;28;20084;-83
2021/04/01 07:55:07;;;;;;;82.60;37.97;;;;;;;20.57;45.40;101518.28;5011204;28;20034;-83
2021/04/01 07:57:59;;;;;;;92.72;40.42;;;;;;;20.82;46.20;101524.13;4991186;28;20466;-83
2021/04/01 08:05:55;;;;;;;73.82;32.08;;;;;;;21.12;44.15;101510.28;5015802;28;20640;-81
2021/04/01 08:08:21;;;;;;;69.15;30.17;;;;;;;21.35;41.63;101517.16;5009863;28;20068;-80
2021/04/01 08:10:49;;;;;;;77.07;31.73;;;;;;;21.34;42.15;101514.59;4995025;28;20025;-82
2021/04/01 08:13:27;;;;;;;72.47;31.48;;;;;;;21.53;41.97;101513.66;5011652;28;20450;-81
2021/04/01 08:15:59;;;;;;;74.18;29.90;;;;;;;21.68;41.82;101513.00;5012080;28;20030;-82
2021/04/01 08:18:31;;;;;;;73.10;28.35;;;;;;;21.87;40.89;101514.78;5012954;28;20041;-81
2021/04/01 08:21:01;;;;;;;69.85;29.70;;;;;;;21.97;39.73;101521.06;5012367;28;20076;-82
2021/04/01 08:23:40;;;;;;;68.80;29.20;;;;;;;21.94;39.27;101517.75;5003136;28;20211;-81
2021/04/01 08:26:40;;;;;;;67.55;28.08;;;;;;;21.98;39.58;101521.94;4994305;28;20045;-82
2021/04/01 08:34:49;;;;;;;67.00;27.80;;;;;;;22.23;39.89;101532.13;5004782;28;20037;-82
2021/04/01 08:37:17;;;;;;;71.53;28.15;;;;;;;22.34;38.81;101534.63;5010577;28;20030;-83
2021/04/01 08:39:47;;;;;;;69.00;27.42;;;;;;;22.29;39.25;101530.66;4999290;28;20042;-84
2021/04/01 08:42:42;;;;;;;63.00;26.48;;;;;;;22.33;38.57;101535.69;5015116;28;20037;-82
2021/04/01 08:45:37;;;;;;;64.95;26.40;;;;;;;22.29;40.32;101528.78;4993652;28;20069;-81
2021/04/01 08:48:09;;;;;;;62.50;24.10;;;;;;;22.50;39.90;101537.56;5016965;28;20049;-82
2021/04/01 08:50:42;;;;;;;63.70;23.10;;;;;;;22.49;38.73;101533.09;4995659;28;20110;-84
2021/04/01 08:53:14;;;;;;;;;;;;;;;22.53;39.24;101537.22;4996058;28;20052;-82
2021/04/01 08:56:12;;;;;;;63.72;20.73;;;;;;;22.34;37.32;101536.53;4995652;28;19928;-83
2021/04/01 08:58:46;;;;;;;59.58;23.33;;;;;;;22.40;39.63;101525.84;4995273;28;20072;-84
2021/04/01 09:01:14;;;;;;;65.97;21.77;;;;;;;22.58;39.42;101534.91;4994227;28;20691;-84
2021/04/01 09:03:42;;;;;;;71.05;22.17;;;;;;;22.56;38.62;101542.41;5003697;28;20072;-83
2021/04/01 09:06:10;;;;;;;68.43;22.45;;;;;;;22.60;38.26;101538.31;5009151;28;20076;-84
2021/04/01 09:08:41;;;;;;;78.28;24.58;;;;;;;22.48;38.39;101539.56;5012051;28;20084;-86
2021/04/01 09:11:09;;;;;;;68.47;26.25;;;;;;;22.09;39.86;101543.63;4995959;28;20057;-86
2021/04/01 09:13:36;;;;;;;78.60;25.83;;;;;;;22.18;40.43;101531.75;5011333;28;20057;-85
2021/04/01 09:16:17;;;;;;;64.38;24.83;;;;;;;22.21;41.33;101539.66;4994981;28;20549;-87
2021/04/01 09:18:45;;;;;;;72.82;25.75;;;;;;;22.27;40.97;101539.03;4993154;28;20033;-86
2021/04/01 09:21:11;;;;;;;67.03;25.60;;;;;;;22.32;42.90;101538.56;5003461;28;20037;-86
2021/04/01 09:23:43;;;;;;;80.13;28.55;;;;;;;22.56;39.41;101547.00;5010250;28;20029;-85
2021/04/01 09:26:12;;;;;;;73.97;27.15;;;;;;;22.37;38.28;101545.28;4993865;28;20041;-85
2021/04/01 09:28:43;;;;;;;71.25;27.70;;;;;;;22.35;38.76;101541.84;5006655;28;20129;-87
2021/04/01 09:31:10;;;;;;;91.43;28.95;;;;;;;22.21;38.93;101542.38;5005059;28;20038;-85
2021/04/01 09:33:38;;;;;;;77.60;29.45;;;;;;;22.23;38.37;101534.88;4993479;28;20064;-86
2021/04/01 09:36:10;;;;;;;78.53;29.05;;;;;;;22.05;38.99;101536.72;4993608;28;20072;-86
2021/04/01 09:38:40;;;;;;;74.78;26.88;;;;;;;22.12;39.24;101532.34;5009607;28;20033;-85
2021/04/01 09:41:07;;;;;;;71.57;28.58;;;;;;;22.00;39.03;101522.63;5010795;28;20033;-85
2021/04/01 09:43:33;;;;;;;72.05;27.38;;;;;;;21.93;39.74;101532.44;5010286;28;20044;-85
2021/04/01 09:46:10;;;;;;;74.70;27.70;;;;;;;22.03;39.02;101536.88;5011259;28;20042;-85
2021/04/01 09:48:39;;;;;;;78.45;28.58;;;;;;;22.08;38.89;101540.03;4987873;28;20038;-85
2021/04/01 09:51:16;;;;;;;74.32;27.23;;;;;;;21.99;39.37;101538.19;5005230;28;20107;-84
2021/04/01 09:53:50;;;;;;;72.07;24.85;;;;;;;21.78;39.49;101552.09;5006993;28;20540;-85
2021/04/01 09:56:27;;;;;;;74.82;26.60;;;;;;;21.84;42.73;101538.81;5010443;28;20418;-86
2021/04/01 09:58:54;;;;;;;74.30;27.60;;;;;;;21.85;41.07;101540.56;4990282;28;20468;-85
2021/04/01 10:01:33;;;;;;;76.60;30.35;;;;;;;21.81;40.85;101545.44;5004276;28;20046;-86
2021/04/01 10:04:06;;;;;;;80.47;28.80;;;;;;;21.84;41.34;101545.16;4986390;28;20061;-85
2021/04/01 10:06:40;;;;;;;80.10;29.40;;;;;;;22.01;42.07;101541.63;4998102;28;20061;-85
2021/04/01 10:09:16;;;;;;;79.22;29.98;;;;;;;22.21;41.95;101541.53;5003512;28;20117;-85
2021/04/01 10:11:55;;;;;;;83.35;29.63;;;;;;;22.16;41.36;101539.22;4990159;28;20050;-86
2021/04/01 10:14:22;;;;;;;71.07;27.10;;;;;;;22.18;42.11;101538.06;4987787;28;20042;-86
2021/04/01 10:16:50;;;;;;;75.90;29.77;;;;;;;22.05;40.70;101545.78;4990111;28;20115;-85
2021/04/01 10:19:21;;;;;;;74.82;28.25;;;;;;;21.93;40.18;101538.75;5002495;28;20240;-87
2021/04/01 10:21:47;;;;;;;78.55;30.63;;;;;;;21.91;41.90;101534.47;5009093;28;20502;-85
2021/04/01 10:24:34;;;;;;;77.32;27.92;;;;;;;22.05;43.14;101525.78;4987692;28;20026;-84
2021/04/01 10:27:19;;;;;;;78.00;26.65;;;;;;;22.01;41.57;101529.84;5005128;28;20149;-87
2021/04/01 10:32:15;;;;;;;71.60;28.23;;;;;;;22.21;41.57;101531.44;5020361;28;20034;-86
2021/04/01 10:34:52;;;;;;;78.32;28.48;;;;;;;22.39;41.18;101543.25;5005963;28;20044;-86
2021/04/01 10:37:20;;;;;;;72.70;29.63;;;;;;;22.20;39.35;101535.19;4990021;28;20417;-87
2021/04/01 10:39:46;;;;;;;74.35;27.67;;;;;;;22.02;40.73;101537.03;5007205;28;20034;-86
2021/04/01 10:42:23;;;;;;;79.25;29.08;;;;;;;22.05;41.11;101543.03;4991471;28;20307;-86
2021/04/01 10:44:58;;;;;;;81.32;31.02;;;;;;;22.08;40.87;101541.88;4986809;28;20503;-86
2021/04/01 10:47:31;;;;;;;83.95;32.78;;;;;;;22.13;40.87;101539.53;4997547;28;20057;-87
2021/04/01 10:49:59;;;;;;;79.60;30.67;;;;;;;22.04;42.09;101534.97;5006460;28;20112;-88
2021/04/01 10:52:31;;;;;;;85.65;32.88;;;;;;;21.97;42.89;101540.19;4989126;28;20084;-85
2021/04/01 10:54:58;;;;;;;82.78;32.30;;;;;;;21.92;41.59;101536.16;4993012;28;20068;-87
2021/04/01 10:57:29;;;;;;;84.03;30.67;;;;;;;22.07;41.47;101535.56;4993136;28;20033;-88
2021/04/01 10:59:54;;;;;;;77.35;33.25;;;;;;;22.10;44.65;101534.38;5007996;28;20018;-86
2021/04/01 11:02:23;;;;;;;73.97;28.10;;;;;;;22.15;42.45;101530.19;5011299;28;20084;-86
2021/04/01 11:05:04;;;;;;;80.97;31.02;;;;;;;22.08;45.29;101537.28;4995770;28;20407;-86
2021/04/01 11:07:35;;;;;;;72.30;29.35;;;;;;;22.26;41.98;101545.50;4991183;28;20506;-87
2021/04/01 11:10:02;;;;;;;78.45;28.60;;;;;;;22.18;41.18;101545.41;5007207;28;20040;-86
2021/04/01 11:12:28;;;;;;;96.30;35.40;;;;;;;22.18;43.31;101537.22;5009451;28;20033;-88
2021/04/01 11:15:02;;;;;;;89.60;33.58;;;;;;;21.96;42.85;101540.38;4992090;28;20065;-88
2021/04/01 11:17:30;;;;;;;85.22;33.08;;;;;;;22.01;45.00;101551.72;4989140;28;20510;-87
2021/04/01 11:19:58;;;;;;;93.75;37.55;;;;;;;22.16;44.79;101533.75;5008569;28;20037;-86
2021/04/01 11:22:24;;;;;;;92.45;35.17;;;;;;;22.07;42.81;101545.63;4991216;28;20057;-86
2021/04/01 11:24:50;;;;;;;96.85;37.55;;;;;;;22.04;44.90;101545.91;4992717;28;20140;-86
2021/04/01 11:27:19;;;;;;;93.90;36.20;;;;;;;22.21;44.94;101542.38;4989783;28;20026;-85
2021/04/01 11:29:53;;;;;;;101.40;37.17;;;;;;;22.16;43.68;101552.91;4990210;28;20388;-86
2021/04/01 11:32:25;;;;;;;92.13;33.50;;;;;;;22.22;41.53;101560.50;5008356;28;20045;-87
2021/04/01 11:34:52;;;;;;;79.13;31.70;;;;;;;22.03;39.82;101558.75;4991051;28;20048;-87
2021/04/01 11:37:21;;;;;;;88.82;31.55;;;;;;;22.07;43.93;101551.97;5005836;28;20095;-86
2021/04/01 11:39:59;;;;;;;81.25;33.10;;;;;;;22.15;42.92;101554.81;4992240;28;20030;-88
2021/04/01 11:42:25;;;;;;;87.78;35.17;;;;;;;22.29;42.35;101550.66;5000041;28;20483;-87
2021/04/01 11:44:56;;;;;;;87.03;32.97;;;;;;;22.04;40.69;101551.38;4993950;28;20045;-86
2021/04/01 11:47:26;;;;;;;90.50;32.75;;;;;;;22.18;40.93;101559.09;5006438;28;20065;-86
2021/04/01 11:49:52;;;;;;;87.10;32.42;;;;;;;22.11;41.66;101552.50;4991474;28;20030;-87
2021/04/01 11:52:21;;;;;;;84.07;33.95;;;;;;;22.01;41.54;101554.44;5000952;28;20046;-87
2021/04/01 11:54:51;;;;;;;88.38;35.47;;;;;;;22.03;42.90;101549.69;5006818;28;20399;-87
2021/04/01 11:57:32;;;;;;;100.53;37.05;;;;;;;21.85;41.19;101551.50;4991492;28;20087;-88
2021/04/01 12:00:14;;;;;;;95.38;34.60;;;;;;;21.87;39.57;101550.31;4988169;28;20200;-86
2021/04/01 12:02:57;;;;;;;85.28;32.95;;;;;;;21.83;40.73;101551.63;4988553;28;20025;-86
2021/04/01 12:05:25;;;;;;;87.82;35.15;;;;;;;21.77;41.41;101549.50;4989973;28;20052;-86
2021/04/01 12:07:52;;;;;;;89.63;36.30;;;;;;;21.78;41.00;101549.34;5006585;28;20032;-86
2021/04/01 12:10:18;;;;;;;88.97;35.45;;;;;;;21.91;41.49;101551.72;5004986;28;20117;-84
2021/04/01 12:12:43;;;;;;;88.68;36.90;;;;;;;21.87;42.31;101543.97;5007828;28;20038;-86
2021/04/01 12:15:09;;;;;;;87.65;34.45;;;;;;;21.92;41.21;101544.38;4983702;28;20052;-86
2021/04/01 12:17:38;;;;;;;86.72;37.63;;;;;;;21.82;42.34;101544.44;5009037;28;20030;-85
2021/04/01 12:20:06;;;;;;;93.63;43.67;;;;;;;21.75;44.51;101548.78;4990440;28;20482;-84
2021/04/01 12:22:38;;;;;;;96.68;41.95;;;;;;;21.94;45.81;101545.97;4991940;28;20080;-85
2021/04/01 12:25:08;;;;;;;99.25;41.67;;;;;;;22.01;45.86;101546.25;5005815;28;20042;-86
2021/04/01 12:27:33;;;;;;;101.40;44.13;;;;;;;21.90;45.62;101549.16;5006775;28;20100;-85
2021/04/01 12:29:59;;;;;;;92.72;43.00;;;;;;;21.76;46.57;101556.84;4989112;28;20058;-85
2021/04/01 12:32:34;;;;;;;100.07;44.13;;;;;;;21.66;46.27;101558.72;5006978;28;20046;-87
2021/04/01 12:35:12;;;;;;;101.95;45.58;;;;;;;21.42;45.72;101561.13;5007230;28;20044;-86
2021/04/01 12:37:39;;;;;;;108.45;50.08;;;;;;;21.35;46.98;101557.28;5004627;28;20038;-87
2021/04/01 12:40:17;;;;;;;108.30;47.30;;;;;;;21.63;47.52;101556.31;5008841;28;20037;-85
2021/04/01 12:42:44;;;;;;;110.78;48.72;;;;;;;21.52;45.86;101561.97;4985827;28;20033;-86
2021/04/01 12:45:32;;;;;;;110.57;49.63;;;;;;;21.44;45.76;101563.72;4992180;28;20069;-86
2021/04/01 12:48:13;;;;;;;117.53;50.30;;;;;;;21.15;46.80;101564.66;5005270;28;20069;-86
2021/04/01 12:50:42;;;;;;;109.78;49.45;;;;;;;21.13;47.70;101572.09;4979636;28;20021;-85